Página principal
METAR-TAF:

METAR-TAF

Aeroportos :

Deadhorse, Alasca, Estados Unidos

latitude: 70-12N, longitude: 148-28W, altura: 17 m

Observação actual do tempo

O boletim foi feito há 30 minutos, às 10:53 UTC
Vento calmo
Temperatura -2°C
Humidade 93%
Pressão 1023 hPa
Visibilidade: 0.4 km
nevoeiro gelado

METAR: PASC 151053Z 00000KT 1/4SM R06/3000VP6000FT FZFG VV002 M02/M03 A3021 RMK AO2 SLP232 VIS 1/4V2SM T10171033 $

Hora: 03:23 (11:23 UTC)

Previsão

O boletim foi feito há 6 horas e 3 minutos, às 05:20 UTC
Previsão válida de 15 às 06 UTC a 16 às 06 UTC
Vento 10 kt de es-nordeste
Visibilidade: 0.8 km
Encobertoa uma altura de 200 ft
nevoeiro
A partir de 15 às 1700 UTC
Vento 5 kt com direcção variável
Visibilidade: 10 km
Nuvens fragmentadasa uma altura de 300 ft

TAF: PASC 150520Z 1506/1606 07010KT 1/2SM FG OVC002 FM151700 VRB05KT P6SM BKN003

Observações e previsões do tempo de mais de 4000 aeroportos (mensagens METAR e TAF).

As estações disponíveis são os pontos amarelos e vermelhos sobre o mapa.

Mova o rato sobre o mapa para ver o nome da estação.

Depois clique no ponto para visualizar as observações e previsões meteorológicas.

Para alterar o mapa : clique nos botões verdes com uma cruz preta para aumentar o zoom; no botão verde com uma pitada de zoom; ou nas setas verdes para mapas adjacentes.


METAR-TAF: